Time;durP1;ratioP1;P1;durP2;ratioP2;P2;SDS_P1;SDS_P2;PMS_P1;PMS_P2;Temp;Humidity;BMP_temperature;BMP_pressure;BME280_temperature;BME280_humidity;BME280_pressure;Samples;Min_cycle;Max_cycle;Signal;HPM_P1;HPM_P2
2022/01/01 00:01:48;;;;;;;455.33;250.48;;;;;;;8.74;100.00;99493.00;4826196;29;20836;-67
2022/01/01 00:04:23;;;;;;;443.55;248.43;;;;;;;8.60;100.00;99494.00;4824342;29;20061;-68
2022/01/01 00:07:19;;;;;;;462.50;246.90;;;;;;;8.57;100.00;99496.56;4819681;29;20484;-67
2022/01/01 00:09:54;;;;;;;445.98;246.68;;;;;;;8.59;100.00;99505.13;4823884;29;20062;-67
2022/01/01 00:12:43;;;;;;;459.52;248.35;;;;;;;8.69;100.00;99505.03;4820841;29;20084;-68
2022/01/01 00:15:25;;;;;;;441.75;251.48;;;;;;;8.63;100.00;99507.63;4831148;29;20057;-67
2022/01/01 00:18:14;;;;;;;445.42;242.52;;;;;;;8.67;100.00;99506.75;4831342;29;20137;-67
2022/01/01 00:20:56;;;;;;;457.20;246.33;;;;;;;8.67;100.00;99501.63;4834277;29;20158;-67
2022/01/01 00:23:45;;;;;;;436.80;241.15;;;;;;;8.78;100.00;99497.22;4830788;29;20050;-67
2022/01/01 00:26:27;;;;;;;439.75;237.00;;;;;;;8.66;100.00;99501.63;4830101;29;20052;-68
2022/01/01 00:29:16;;;;;;;431.17;237.82;;;;;;;8.79;100.00;99501.50;4827209;29;20399;-68
2022/01/01 00:32:04;;;;;;;436.35;238.20;;;;;;;8.69;100.00;99491.34;4824101;29;20399;-67
2022/01/01 00:34:53;;;;;;;422.67;237.38;;;;;;;8.81;100.00;99497.19;4828618;29;20057;-67
2022/01/01 00:37:42;;;;;;;434.52;240.05;;;;;;;8.72;100.00;99492.16;4827204;29;20427;-68
2022/01/01 00:40:23;;;;;;;438.85;238.48;;;;;;;9.02;100.00;99498.69;4809692;29;20050;-67
2022/01/01 00:43:13;;;;;;;433.10;232.80;;;;;;;9.01;100.00;99504.72;4825212;29;20054;-68
2022/01/01 00:46:00;;;;;;;434.05;236.05;;;;;;;9.04;100.00;99502.09;4827616;29;20744;-68
2022/01/01 00:48:53;;;;;;;428.08;229.68;;;;;;;8.91;100.00;99502.25;4820862;29;20059;-68
2022/01/01 00:51:40;;;;;;;421.23;230.50;;;;;;;8.71;100.00;99498.16;4832128;29;20055;-68
2022/01/01 00:54:28;;;;;;;402.80;227.10;;;;;;;8.63;100.00;99501.66;4830507;29;20698;-68
2022/01/01 00:57:09;;;;;;;416.65;231.48;;;;;;;8.63;100.00;99505.06;4831782;29;20580;-67
2022/01/01 01:00:01;;;;;;;417.58;229.02;;;;;;;8.62;100.00;99500.78;4833221;29;20379;-68
2022/01/01 01:02:43;;;;;;;417.30;226.23;;;;;;;8.57;100.00;99507.69;4811734;29;20068;-67
2022/01/01 01:05:32;;;;;;;429.67;232.43;;;;;;;8.64;100.00;99506.78;4805300;29;20062;-68
2022/01/01 01:08:20;;;;;;;427.35;231.57;;;;;;;8.52;100.00;99503.47;4789820;29;20401;-67
2022/01/01 01:11:10;;;;;;;416.77;227.50;;;;;;;8.43;100.00;99504.41;4805938;29;20135;-68
2022/01/01 01:14:00;;;;;;;417.52;227.15;;;;;;;8.57;100.00;99515.41;4830026;29;20494;-68
2022/01/01 01:16:48;;;;;;;418.92;228.00;;;;;;;8.35;100.00;99519.00;4818366;29;20058;-67
2022/01/01 01:19:31;;;;;;;407.13;231.40;;;;;;;8.38;100.00;99519.81;4819838;29;20534;-68
2022/01/01 01:22:28;;;;;;;416.98;223.57;;;;;;;8.60;100.00;99520.53;4820589;29;20058;-67
2022/01/01 01:25:04;;;;;;;419.20;227.68;;;;;;;8.49;100.00;99524.88;4803392;29;20510;-68
2022/01/01 01:27:52;;;;;;;429.60;228.68;;;;;;;8.33;100.00;99525.88;4819352;29;20142;-68
2022/01/01 01:30:34;;;;;;;410.73;225.07;;;;;;;8.51;100.00;99540.28;4821992;29;20065;-68
2022/01/01 01:33:22;;;;;;;393.17;220.73;;;;;;;8.50;100.00;99547.13;4837451;29;20144;-67
2022/01/01 01:36:04;;;;;;;427.60;221.32;;;;;;;8.50;100.00;99542.00;4822642;29;20157;-68
2022/01/01 01:38:52;;;;;;;430.08;221.40;;;;;;;8.43;100.00;99548.03;4818788;29;20069;-68
2022/01/01 01:41:34;;;;;;;412.35;220.57;;;;;;;8.32;100.00;99542.97;4819119;29;20059;-67
2022/01/01 01:44:35;;;;;;;409.20;220.18;;;;;;;8.31;100.00;99550.69;4820637;29;20058;-68
2022/01/01 01:47:26;;;;;;;412.98;223.85;;;;;;;8.19;100.00;99548.19;4806647;29;20157;-68
2022/01/01 01:50:23;;;;;;;407.83;221.07;;;;;;;8.02;100.00;99561.97;4814655;29;20059;-68
2022/01/01 01:52:59;;;;;;;417.40;218.93;;;;;;;8.05;100.00;99554.25;4831235;29;20490;-68
2022/01/01 01:55:55;;;;;;;414.27;222.97;;;;;;;8.17;100.00;99552.47;4837097;29;20050;-67
2022/01/01 01:58:30;;;;;;;408.23;217.70;;;;;;;8.21;100.00;99554.16;4837249;29;20082;-68
2022/01/01 02:01:23;;;;;;;407.27;221.05;;;;;;;7.98;100.00;99559.44;4836622;29;20091;-67
2022/01/01 02:04:06;;;;;;;400.35;218.65;;;;;;;7.92;100.00;99560.31;4824753;29;20082;-67
2022/01/01 02:07:00;;;;;;;399.73;221.60;;;;;;;7.85;100.00;99550.09;4819044;29;20054;-68
2022/01/01 02:09:35;;;;;;;442.92;231.40;;;;;;;7.82;100.00;99556.06;4802603;29;20083;-68
2022/01/01 02:12:24;;;;;;;465.17;242.18;;;;;;;7.78;100.00;99558.66;4795313;29;20057;-68
2022/01/01 02:15:13;;;;;;;475.00;256.33;;;;;;;7.71;100.00;99562.97;4827165;29;20061;-67
2022/01/01 02:18:01;;;;;;;500.75;261.88;;;;;;;7.68;100.00;99566.41;4804067;29;20051;-69
2022/01/01 02:20:50;;;;;;;477.55;253.45;;;;;;;7.98;100.00;99573.09;4820336;29;20073;-66
2022/01/01 02:23:47;;;;;;;494.60;258.75;;;;;;;7.88;100.00;99571.47;4802460;29;20051;-68
2022/01/01 02:26:28;;;;;;;493.95;262.65;;;;;;;7.84;100.00;99569.75;4818913;29;20050;-67
2022/01/01 02:29:15;;;;;;;489.60;260.67;;;;;;;7.91;100.00;99576.56;4814433;29;20057;-66
2022/01/01 02:31:59;;;;;;;495.90;262.10;;;;;;;7.81;100.00;99574.06;4796418;29;20067;-67
2022/01/01 02:34:55;;;;;;;496.85;257.33;;;;;;;7.83;100.00;99575.72;4817398;29;20091;-67
2022/01/01 02:37:31;;;;;;;492.73;261.83;;;;;;;8.00;100.00;99586.78;4817656;29;20755;-67
2022/01/01 02:40:27;;;;;;;;;;;;;;;8.01;100.00;99577.38;4811236;29;20054;-67
2022/01/01 02:43:03;;;;;;;487.70;255.07;;;;;;;8.16;100.00;99594.38;4798549;29;20300;-68
2022/01/01 02:45:53;;;;;;;513.35;262.58;;;;;;;8.18;100.00;99593.53;4797513;29;20051;-68
2022/01/01 02:48:44;;;;;;;490.95;259.90;;;;;;;8.32;100.00;99599.44;4781619;29;20051;-68
2022/01/01 02:51:40;;;;;;;519.22;269.77;;;;;;;8.21;100.00;99602.94;4798816;29;20707;-67
2022/01/01 02:54:15;;;;;;;544.28;274.00;;;;;;;8.29;100.00;99608.88;4799046;29;20605;-68
2022/01/01 02:57:05;;;;;;;509.92;262.60;;;;;;;8.51;100.00;99615.59;4797452;29;20127;-67
2022/01/01 02:59:48;;;;;;;483.75;258.40;;;;;;;8.68;100.00;99621.47;4797885;29;20141;-68
2022/01/01 03:02:35;;;;;;;503.92;257.52;;;;;;;8.87;100.00;99626.44;4767671;29;20065;-68
2022/01/01 03:05:18;;;;;;;496.00;258.50;;;;;;;8.77;100.00;99623.13;4782449;29;20059;-67
2022/01/01 03:08:06;;;;;;;485.70;256.13;;;;;;;8.77;100.00;99634.25;4789245;29;20519;-68
2022/01/01 03:10:55;;;;;;;489.42;259.58;;;;;;;9.04;100.00;99632.31;4798644;29;20059;-68
2022/01/01 03:13:36;;;;;;;509.13;267.80;;;;;;;9.27;100.00;99640.66;4799089;29;20059;-68
2022/01/01 03:16:26;;;;;;;481.98;260.92;;;;;;;9.29;100.00;99628.66;4797889;29;20087;-68
2022/01/01 03:19:14;;;;;;;509.73;266.55;;;;;;;9.38;100.00;99638.00;4799016;29;20047;-68
2022/01/01 03:22:03;;;;;;;489.40;260.27;;;;;;;9.71;100.00;99632.50;4809236;29;20169;-67
2022/01/01 03:24:44;;;;;;;488.58;254.07;;;;;;;9.97;100.00;99639.94;4825852;29;20062;-68
2022/01/01 03:27:33;;;;;;;480.75;256.77;;;;;;;10.55;100.00;99639.16;4798897;29;20422;-68
2022/01/01 03:30:15;;;;;;;492.27;257.48;;;;;;;10.82;100.00;99641.34;4822987;29;20075;-68
2022/01/01 03:33:04;;;;;;;453.17;249.65;;;;;;;11.09;100.00;99648.63;4826429;29;20054;-68
2022/01/01 03:35:49;;;;;;;460.57;244.83;;;;;;;11.40;100.00;99658.44;4818341;29;20054;-66
2022/01/01 03:38:38;;;;;;;446.25;240.20;;;;;;;11.91;100.00;99658.34;4822679;29;20053;-68
2022/01/01 03:41:21;;;;;;;444.48;236.85;;;;;;;12.26;100.00;99650.75;4820632;29;20050;-68
2022/01/01 03:44:11;;;;;;;440.42;239.18;;;;;;;12.65;100.00;99660.22;4816803;29;20049;-67
2022/01/01 03:47:09;;;;;;;439.35;233.60;;;;;;;13.17;100.00;99664.16;4806522;29;20079;-68
2022/01/01 03:49:58;;;;;;;420.83;232.32;;;;;;;13.37;100.00;99667.13;4828175;29;20058;-69
2022/01/01 03:52:44;;;;;;;412.67;228.90;;;;;;;13.66;100.00;99665.50;4834512;29;20133;-69
2022/01/01 03:55:33;;;;;;;437.17;232.25;;;;;;;13.97;100.00;99679.31;4834442;29;20094;-69
2022/01/01 03:58:21;;;;;;;419.10;229.30;;;;;;;14.29;100.00;99681.00;4815682;29;20741;-68
2022/01/01 04:01:04;;;;;;;408.15;223.52;;;;;;;14.80;100.00;99686.41;4799030;29;20189;-68
2022/01/01 04:04:00;;;;;;;389.98;211.57;;;;;;;15.36;100.00;99682.88;4812090;29;20043;-69
2022/01/01 04:06:35;;;;;;;383.15;213.32;;;;;;;15.35;100.00;99676.84;4819670;29;20055;-67
2022/01/01 04:09:23;;;;;;;394.50;211.43;;;;;;;15.37;96.98;99682.84;4826709;29;20042;-68
2022/01/01 04:12:13;;;;;;;376.50;214.95;;;;;;;15.45;95.17;99687.78;4823269;29;20125;-69
2022/01/01 04:15:09;;;;;;;360.50;209.15;;;;;;;15.59;95.72;99694.22;4831893;29;20065;-70
2022/01/01 04:17:44;;;;;;;384.67;212.80;;;;;;;15.68;87.43;99699.09;4826156;29;20483;-69
2022/01/01 04:20:32;;;;;;;375.00;212.50;;;;;;;16.31;89.68;99702.06;4798367;29;20345;-69
2022/01/01 04:23:27;;;;;;;390.83;218.32;;;;;;;16.28;86.57;99700.41;4827005;29;20526;-69
2022/01/01 04:26:15;;;;;;;392.13;212.95;;;;;;;16.40;80.97;99706.94;4832848;29;20137;-69
2022/01/01 04:28:58;;;;;;;379.02;212.10;;;;;;;16.19;86.92;99705.97;4818844;29;20061;-70
2022/01/01 04:31:53;;;;;;;386.35;213.35;;;;;;;15.87;91.46;99695.88;4826898;29;20394;-67
2022/01/01 04:34:28;;;;;;;385.83;215.82;;;;;;;15.87;90.59;99701.06;4826607;29;20049;-66
2022/01/01 04:37:20;;;;;;;393.13;215.07;;;;;;;15.81;93.98;99699.50;4822971;29;20057;-67
2022/01/01 04:40:10;;;;;;;369.17;212.82;;;;;;;16.21;85.62;99706.75;4805951;29;20046;-68
2022/01/01 04:42:59;;;;;;;399.63;224.40;;;;;;;16.36;85.02;99718.38;4819752;29;20050;-67
2022/01/01 04:45:41;;;;;;;392.23;223.38;;;;;;;16.14;83.59;99714.81;4831863;29;20050;-68
2022/01/01 04:48:31;;;;;;;393.98;215.77;;;;;;;16.49;82.34;99709.19;4822137;29;20225;-67
2022/01/01 04:51:14;;;;;;;405.67;219.60;;;;;;;16.54;76.71;99711.59;4818757;29;20061;-67
2022/01/01 04:54:03;;;;;;;391.88;214.85;;;;;;;17.11;78.21;99709.38;4788727;29;20497;-67
2022/01/01 04:56:53;;;;;;;382.60;216.32;;;;;;;17.24;80.99;99714.09;4820354;29;20058;-67
2022/01/01 04:59:35;;;;;;;396.63;214.57;;;;;;;17.03;72.97;99721.00;4830964;29;20149;-68
2022/01/01 05:02:23;;;;;;;400.42;211.35;;;;;;;17.12;74.74;99718.88;4822640;29;20070;-68
2022/01/01 05:05:19;;;;;;;376.48;207.80;;;;;;;16.83;72.76;99719.19;4826905;29;20109;-68
2022/01/01 05:07:54;;;;;;;400.10;212.70;;;;;;;17.31;69.42;99720.75;4828129;29;20069;-68
2022/01/01 05:10:43;;;;;;;378.05;208.10;;;;;;;17.01;66.01;99712.41;4811098;29;20902;-69
2022/01/01 05:13:25;;;;;;;396.90;204.82;;;;;;;16.51;64.77;99706.53;4827495;29;20054;-68
2022/01/01 05:16:21;;;;;;;390.23;204.00;;;;;;;16.75;65.37;99703.03;4807830;29;20058;-68
2022/01/01 05:18:56;;;;;;;393.98;205.52;;;;;;;17.25;73.06;99702.75;4803090;29;20459;-68
2022/01/01 05:21:56;;;;;;;366.15;194.10;;;;;;;17.34;69.20;99702.38;4820096;29;20069;-68
2022/01/01 05:24:43;;;;;;;377.15;192.63;;;;;;;17.55;64.70;99709.31;4808898;29;20427;-68
2022/01/01 05:27:34;;;;;;;357.55;186.70;;;;;;;17.67;66.26;99703.63;4832189;29;20436;-68
2022/01/01 05:30:17;;;;;;;345.90;181.95;;;;;;;17.79;63.57;99705.72;4825663;29;20046;-68
2022/01/01 05:33:09;;;;;;;347.30;176.63;;;;;;;17.89;61.18;99708.75;4829106;29;20046;-69
2022/01/01 05:35:50;;;;;;;348.55;179.48;;;;;;;17.95;64.84;99705.91;4836484;29;20502;-68
2022/01/01 05:38:40;;;;;;;320.50;172.27;;;;;;;18.06;60.43;99708.00;4829482;29;20050;-68
2022/01/01 05:41:25;;;;;;;307.60;160.38;;;;;;;18.24;63.33;99705.44;4821088;29;20064;-68
2022/01/01 05:44:14;;;;;;;302.17;151.73;;;;;;;18.58;64.04;99694.38;4786350;29;20138;-68
2022/01/01 05:46:55;;;;;;;250.75;130.93;;;;;;;18.26;53.32;99705.38;4830870;29;20054;-68
2022/01/01 05:49:45;;;;;;;244.10;125.80;;;;;;;18.56;57.51;99685.75;4816003;29;20424;-69
2022/01/01 05:52:33;;;;;;;278.45;142.25;;;;;;;18.73;56.47;99691.03;4809410;29;20046;-69
2022/01/01 05:55:22;;;;;;;295.30;146.45;;;;;;;18.86;58.83;99677.38;4819667;29;20050;-68
2022/01/01 05:58:05;;;;;;;303.67;157.80;;;;;;;18.89;56.39;99682.47;4829589;29;20077;-68
2022/01/01 06:00:54;;;;;;;334.75;158.90;;;;;;;18.98;61.68;99674.19;4828607;29;20077;-68
2022/01/01 06:03:35;;;;;;;311.35;150.93;;;;;;;19.02;53.76;99673.13;4807251;29;20058;-68
2022/01/01 06:06:25;;;;;;;366.20;162.45;;;;;;;18.97;55.89;99668.13;4831626;29;20114;-66
2022/01/01 06:09:11;;;;;;;298.50;153.85;;;;;;;19.01;58.72;99656.59;4809437;29;20042;-66
2022/01/01 06:12:01;;;;;;;271.05;146.88;;;;;;;19.43;54.28;99668.47;4831053;29;20062;-63
2022/01/01 06:14:42;;;;;;;286.33;147.90;;;;;;;19.27;57.18;99652.69;4823872;29;20632;-64
2022/01/01 06:17:31;;;;;;;229.43;125.18;;;;;;;19.38;55.23;99650.41;4817941;29;20062;-64
2022/01/01 06:20:14;;;;;;;199.50;108.82;;;;;;;19.40;53.68;99648.53;4826339;29;20546;-65
2022/01/01 06:23:22;;;;;;;174.02;91.75;;;;;;;19.33;51.81;99647.16;4828965;29;20050;-63
2022/01/01 06:26:11;;;;;;;117.63;61.83;;;;;;;19.30;48.56;99636.03;4828391;29;20053;-65
2022/01/01 06:29:00;;;;;;;148.55;73.25;;;;;;;19.67;48.99;99629.78;4829536;29;20454;-64
2022/01/01 06:31:41;;;;;;;154.35;85.97;;;;;;;19.67;53.26;99629.78;4825057;29;20165;-67
2022/01/01 06:34:31;;;;;;;174.75;96.22;;;;;;;19.45;50.27;99620.44;4802973;29;20476;-62
2022/01/01 06:37:13;;;;;;;186.48;104.88;;;;;;;19.74;52.69;99610.25;4819588;29;20054;-62
2022/01/01 06:40:03;;;;;;;154.82;88.57;;;;;;;19.67;48.15;99611.50;4825336;29;20082;-64
2022/01/01 06:42:50;;;;;;;150.43;80.95;;;;;;;19.55;47.44;99617.38;4816704;29;20062;-64
2022/01/01 06:45:41;;;;;;;161.40;86.78;;;;;;;19.73;47.55;99603.31;4827729;29;20439;-65
2022/01/01 06:48:23;;;;;;;162.35;83.13;;;;;;;19.75;46.87;99596.25;4833587;29;20079;-67
2022/01/01 06:51:11;;;;;;;133.95;68.95;;;;;;;19.83;43.77;99599.31;4825961;29;20064;-66
2022/01/01 06:53:59;;;;;;;109.00;59.70;;;;;;;19.75;46.14;99591.03;4813467;29;20057;-66
2022/01/01 06:56:41;;;;;;;138.70;71.72;;;;;;;19.75;45.95;99575.34;4825686;29;20670;-67
2022/01/01 06:59:30;;;;;;;158.25;82.90;;;;;;;19.82;46.02;99563.63;4825694;29;20058;-67
2022/01/01 07:02:12;;;;;;;185.88;91.35;;;;;;;19.92;44.82;99562.19;4823676;29;20050;-66
2022/01/01 07:05:00;;;;;;;221.32;111.22;;;;;;;19.74;47.20;99550.09;4823840;29;20086;-67
2022/01/01 07:07:43;;;;;;;210.55;111.45;;;;;;;19.74;47.00;99543.09;4825685;29;20049;-66
2022/01/01 07:10:39;;;;;;;220.20;120.20;;;;;;;19.55;46.97;99541.56;4821822;29;20058;-65
2022/01/01 07:13:16;;;;;;;206.57;110.38;;;;;;;19.65;50.79;99529.69;4826224;29;20091;-65
2022/01/01 07:16:06;;;;;;;167.02;83.65;;;;;;;19.46;48.46;99516.72;4823954;29;20090;-65
2022/01/01 07:18:55;;;;;;;170.50;82.32;;;;;;;19.57;47.41;99518.78;4824194;29;20066;-66
2022/01/01 07:21:44;;;;;;;150.13;74.32;;;;;;;19.49;47.40;99512.19;4807701;29;20095;-65
2022/01/01 07:24:41;;;;;;;119.10;62.92;;;;;;;19.71;48.02;99516.31;4792417;29;20055;-67
2022/01/01 07:27:19;;;;;;;107.10;55.30;;;;;;;19.79;47.94;99512.31;4798382;29;20046;-65
2022/01/01 07:30:16;;;;;;;89.38;49.20;;;;;;;19.85;48.33;99508.53;4790623;29;20399;-66
2022/01/01 07:32:55;;;;;;;90.07;48.25;;;;;;;19.71;46.59;99496.22;4802131;29;20077;-65
2022/01/01 07:35:43;;;;;;;93.78;49.67;;;;;;;19.91;45.65;99495.13;4790273;29;20051;-67
2022/01/01 07:38:32;;;;;;;82.80;41.25;;;;;;;19.96;44.49;99494.84;4798718;29;20061;-64
2022/01/01 07:41:13;;;;;;;80.18;40.55;;;;;;;19.77;43.88;99487.19;4797269;29;20141;-66
2022/01/01 07:44:03;;;;;;;83.97;42.25;;;;;;;19.81;45.97;99475.63;4784472;29;20047;-68
2022/01/01 07:46:45;;;;;;;80.88;41.63;;;;;;;19.92;43.12;99482.91;4799096;29;20055;-67
2022/01/01 07:49:27;;;;;;;75.30;39.20;;;;;;;20.07;45.24;99472.41;4781975;29;20071;-66
2022/01/01 07:52:21;;;;;;;70.45;36.50;;;;;;;20.00;40.47;99476.31;5338871;24;20241;-66
2022/01/01 07:55:17;;;;;;;72.40;35.58;;;;;;;20.01;39.86;99475.38;4854433;29;20485;-67
2022/01/01 07:57:52;;;;;;;70.07;35.03;;;;;;;20.07;42.20;99463.72;4855264;29;20145;-67
2022/01/01 08:00:48;;;;;;;55.72;26.38;;;;;;;20.01;41.42;99462.31;4852925;29;20168;-65
2022/01/01 08:03:23;;;;;;;56.35;24.85;;;;;;;19.91;40.78;99461.13;4860991;29;20346;-66
2022/01/01 08:06:19;;;;;;;53.95;25.65;;;;;;;19.85;40.50;99457.09;4863107;29;21261;-65
2022/01/01 08:08:54;;;;;;;52.45;24.65;;;;;;;19.96;40.67;99448.63;4840241;29;20469;-66
2022/01/01 08:11:51;;;;;;;48.40;24.52;;;;;;;19.91;38.90;99453.28;4849741;29;20141;-68
2022/01/01 08:14:27;;;;;;;62.90;30.58;;;;;;;19.98;42.30;99449.38;4862937;29;20764;-67
2022/01/01 08:17:18;;;;;;;57.97;28.35;;;;;;;19.92;40.87;99447.13;4855912;29;20053;-65
2022/01/01 08:20:00;;;;;;;67.95;30.25;;;;;;;19.91;41.89;99442.81;4849692;29;20053;-64
2022/01/01 08:22:54;;;;;;;71.20;33.08;;;;;;;19.96;42.27;99443.38;4858317;29;20576;-62
2022/01/01 08:25:29;;;;;;;53.35;26.98;;;;;;;19.93;40.20;99438.34;4863738;29;20049;-64
2022/01/01 08:28:24;;;;;;;55.03;24.67;;;;;;;19.93;40.22;99443.59;4862296;29;20037;-63
2022/01/01 08:30:59;;;;;;;64.70;29.83;;;;;;;19.83;39.60;99438.00;4866515;29;20553;-66
2022/01/01 08:33:47;;;;;;;74.95;32.90;;;;;;;19.84;41.54;99433.63;4864102;29;20060;-62
2022/01/01 08:36:37;;;;;;;69.95;37.03;;;;;;;19.73;39.28;99434.22;4860569;29;20060;-63
2022/01/01 08:39:19;;;;;;;77.15;38.13;;;;;;;19.79;41.71;99428.63;4855219;29;20056;-63
2022/01/01 08:42:09;;;;;;;78.40;40.40;;;;;;;19.61;39.33;99432.28;4855752;29;20061;-63
2022/01/01 08:45:09;;;;;;;;;;;;;;;19.65;40.09;99428.56;4851525;29;20060;-64
2022/01/01 08:47:59;;;;;;;84.80;39.08;;;;;;;19.69;42.73;99418.78;4825037;29;19929;-64
2022/01/01 08:50:40;;;;;;;73.15;36.92;;;;;;;19.69;41.39;99413.56;4856090;29;20056;-64
2022/01/01 08:53:36;;;;;;;72.55;39.30;;;;;;;19.74;41.38;99408.91;4864965;29;20113;-67
2022/01/01 08:56:24;;;;;;;91.28;44.45;;;;;;;19.80;43.72;99416.41;4864181;29;20056;-66
2022/01/01 08:59:14;;;;;;;96.28;44.38;;;;;;;19.75;42.77;99413.22;4843135;29;20106;-64
2022/01/01 09:01:55;;;;;;;80.20;39.40;;;;;;;19.60;41.00;99404.47;4862825;29;20057;-64
2022/01/01 09:04:45;;;;;;;87.47;39.80;;;;;;;19.53;41.81;99404.88;4849058;29;20148;-65
2022/01/01 09:07:29;;;;;;;84.82;43.00;;;;;;;19.46;41.32;99406.97;4860446;29;20806;-64
2022/01/01 09:10:20;;;;;;;62.80;30.35;;;;;;;19.51;40.00;99406.72;4844602;29;20051;-64
2022/01/01 09:13:01;;;;;;;52.97;26.88;;;;;;;19.51;39.15;99407.56;4841775;29;20508;-62
2022/01/01 09:15:52;;;;;;;55.03;25.83;;;;;;;19.46;38.10;99402.56;4858933;29;20064;-65
2022/01/01 09:18:34;;;;;;;48.85;24.75;;;;;;;19.45;39.10;99394.81;4866023;29;20648;-67
2022/01/01 09:21:23;;;;;;;53.83;24.58;;;;;;;19.40;38.53;99388.97;4860942;29;20045;-66
2022/01/01 09:24:06;;;;;;;51.97;25.02;;;;;;;19.33;39.75;99391.09;4833999;29;20045;-64
2022/01/01 09:26:55;;;;;;;49.67;25.27;;;;;;;19.30;38.73;99380.81;4851038;29;20048;-63
2022/01/01 09:29:36;;;;;;;53.35;23.67;;;;;;;19.35;39.51;99393.63;4843947;29;20057;-66
2022/01/01 09:32:25;;;;;;;57.67;22.90;;;;;;;19.29;39.39;99384.34;4853816;29;20491;-69
2022/01/01 09:35:07;;;;;;;49.25;21.15;;;;;;;19.24;40.05;99396.81;4860541;29;20073;-66
2022/01/01 09:37:55;;;;;;;43.65;21.92;;;;;;;19.23;38.96;99394.31;4851180;29;20121;-69
2022/01/01 09:40:37;;;;;;;43.08;20.55;;;;;;;19.19;38.32;99391.00;4862938;29;20041;-64
2022/01/01 09:43:27;;;;;;;35.58;19.50;;;;;;;19.25;38.52;99395.03;4864092;29;20041;-68
2022/01/01 09:46:13;;;;;;;53.47;21.83;;;;;;;19.23;40.25;99389.91;4848440;29;20717;-66
2022/01/01 09:49:08;;;;;;;51.60;22.17;;;;;;;19.18;40.30;99389.31;4859697;29;20049;-67
2022/01/01 09:51:50;;;;;;;49.28;21.63;;;;;;;19.15;40.60;99386.88;4869199;29;20730;-68
2022/01/01 09:54:45;;;;;;;42.65;20.67;;;;;;;19.04;40.09;99383.97;4864378;29;20128;-69
2022/01/01 09:57:20;;;;;;;42.17;20.65;;;;;;;18.96;39.75;99386.16;4846288;29;20049;-65
2022/01/01 10:00:08;;;;;;;49.25;21.40;;;;;;;18.89;39.09;99369.97;4851229;29;20064;-65
2022/01/01 10:02:50;;;;;;;43.70;20.02;;;;;;;18.91;39.14;99377.72;4860773;29;20065;-67
2022/01/01 10:06:20;;;;;;;54.97;24.15;;;;;;;18.82;41.18;99366.00;4850285;29;20797;-66
2022/01/01 10:09:03;;;;;;;52.30;25.55;;;;;;;18.70;41.94;99374.47;4862409;29;20562;-66
2022/01/01 10:11:58;;;;;;;49.50;22.20;;;;;;;18.65;41.58;99372.09;4845550;29;20063;-67
2022/01/01 10:14:42;;;;;;;50.88;24.52;;;;;;;18.64;40.64;99374.78;4862766;29;20054;-68
2022/01/01 10:17:31;;;;;;;51.72;25.75;;;;;;;18.63;42.42;99376.56;4863792;29;20053;-66
2022/01/01 10:20:19;;;;;;;45.25;23.85;;;;;;;18.62;42.03;99368.78;4863654;29;20045;-68
2022/01/01 10:23:14;;;;;;;54.40;23.85;;;;;;;18.61;39.87;99370.56;4862079;29;20072;-65
2022/01/01 10:29:42;;;;;;;53.53;23.50;;;;;;;18.57;42.10;99369.03;4858462;29;20081;-65
2022/01/01 10:32:32;;;;;;;64.68;25.92;;;;;;;18.51;42.77;99369.34;4851629;29;20061;-65
2022/01/01 10:35:16;;;;;;;52.17;25.15;;;;;;;18.47;42.96;99372.16;4853692;29;20056;-66
2022/01/01 10:38:05;;;;;;;60.17;24.92;;;;;;;18.41;42.40;99362.88;4846662;29;20045;-64
2022/01/01 10:40:47;;;;;;;58.20;25.20;;;;;;;18.31;42.34;99367.72;4854166;29;20082;-65
2022/01/01 10:43:47;;;;;;;48.80;24.38;;;;;;;18.27;42.42;99365.34;4849508;29;20084;-64
2022/01/01 10:46:29;;;;;;;59.77;26.23;;;;;;;18.19;41.63;99359.69;4846152;29;20058;-65
2022/01/01 10:52:34;;;;;;;51.47;26.10;;;;;;;17.99;44.63;99352.84;4864819;29;20052;-65
2022/01/01 10:55:19;;;;;;;66.60;26.77;;;;;;;17.90;45.01;99361.94;4862646;29;20057;-65
2022/01/01 10:58:07;;;;;;;60.05;26.90;;;;;;;17.80;47.90;99355.50;4847391;29;20069;-65
2022/01/01 11:00:58;;;;;;;60.60;26.88;;;;;;;17.70;45.79;99356.88;4845374;29;20086;-65
2022/01/01 11:03:43;;;;;;;70.70;27.10;;;;;;;17.65;46.01;99353.63;4843758;29;20068;-65
2022/01/01 11:06:37;;;;;;;63.03;28.80;;;;;;;17.60;45.45;99351.22;4845537;29;20067;-65
2022/01/01 11:09:19;;;;;;;69.68;29.55;;;;;;;17.52;45.42;99349.91;4843950;29;20481;-62
2022/01/01 11:12:08;;;;;;;71.93;29.65;;;;;;;17.47;45.54;99357.94;4849573;29;20052;-64
2022/01/01 11:14:59;;;;;;;61.28;29.52;;;;;;;17.45;47.46;99351.09;4847569;29;20090;-64
2022/01/01 11:17:51;;;;;;;77.80;30.65;;;;;;;17.37;48.71;99351.47;4864582;29;20065;-64
2022/01/01 11:20:35;;;;;;;65.20;29.95;;;;;;;17.27;50.01;99349.34;4848187;29;20545;-64
2022/01/01 11:23:27;;;;;;;76.35;32.33;;;;;;;17.17;51.95;99354.13;4843879;29;20053;-64
2022/01/01 11:26:09;;;;;;;69.63;29.75;;;;;;;16.99;53.08;99349.78;4845289;29;20133;-64
2022/01/01 11:28:58;;;;;;;63.83;31.88;;;;;;;16.83;54.76;99349.63;4854796;29;20049;-64
2022/01/01 11:31:47;;;;;;;76.05;33.13;;;;;;;16.71;59.72;99347.56;4851508;29;20478;-64
2022/01/01 11:34:38;;;;;;;67.53;32.55;;;;;;;16.51;60.27;99347.56;4844147;29;20081;-64
2022/01/01 11:37:43;;;;;;;76.68;33.33;;;;;;;16.33;63.43;99350.03;4854062;29;20132;-64
2022/01/01 11:40:33;;;;;;;72.55;33.47;;;;;;;16.14;60.97;99348.28;4854296;29;20061;-64
2022/01/01 11:43:36;;;;;;;78.70;34.35;;;;;;;16.02;67.55;99349.66;4852660;29;20049;-65
2022/01/01 11:46:29;;;;;;;75.43;35.58;;;;;;;15.86;66.41;99353.78;4856749;29;20080;-65
2022/01/01 11:49:26;;;;;;;80.32;35.08;;;;;;;15.69;69.05;99351.84;4862042;29;20741;-65
2022/01/01 11:52:48;;;;;;;82.82;37.28;;;;;;;15.56;71.62;99350.66;4836134;29;20049;-65
2022/01/01 11:55:56;;;;;;;82.22;37.80;;;;;;;15.43;73.71;99346.81;4859520;29;20064;-64
2022/01/01 11:58:58;;;;;;;104.18;38.85;;;;;;;15.32;74.57;99347.25;4861715;29;20108;-65
2022/01/01 12:01:47;;;;;;;84.13;38.50;;;;;;;15.22;73.61;99353.69;4866356;29;20649;-65
2022/01/01 12:04:31;;;;;;;87.78;39.17;;;;;;;15.09;75.70;99352.44;4862518;29;20064;-65
2022/01/01 12:07:19;;;;;;;86.95;39.22;;;;;;;14.92;76.11;99353.91;4865144;29;20057;-66
2022/01/01 12:10:06;;;;;;;87.45;39.88;;;;;;;14.86;75.58;99355.88;4873003;29;20053;-65
2022/01/01 12:13:03;;;;;;;95.85;40.22;;;;;;;14.72;76.94;99356.38;4857619;29;20041;-65
2022/01/01 12:15:53;;;;;;;98.53;40.92;;;;;;;14.64;77.99;99355.81;4849139;29;20049;-65
2022/01/01 12:18:42;;;;;;;91.47;41.30;;;;;;;14.55;77.73;99361.31;4830897;29;20390;-67
2022/01/01 12:21:28;;;;;;;98.20;43.97;;;;;;;14.44;79.26;99353.94;4864875;29;20369;-69
2022/01/01 12:24:20;;;;;;;97.15;42.40;;;;;;;14.39;78.00;99352.38;4852744;29;20553;-72
2022/01/01 12:27:17;;;;;;;97.18;40.47;;;;;;;14.28;78.64;99364.84;4854009;29;20053;-67
2022/01/01 12:30:06;;;;;;;102.25;43.30;;;;;;;14.16;76.71;99369.53;4855780;29;20052;-66
2022/01/01 12:33:00;;;;;;;174.50;46.95;;;;;;;14.11;81.56;99368.84;4860778;29;20501;-66
2022/01/01 12:35:58;;;;;;;126.30;47.35;;;;;;;14.06;81.95;99375.06;4856591;29;20053;-66
2022/01/01 12:38:46;;;;;;;108.80;49.13;;;;;;;13.99;82.34;99377.03;4855172;29;20056;-66
2022/01/01 12:41:37;;;;;;;114.32;47.85;;;;;;;13.89;82.95;99373.03;4854017;29;20157;-65
2022/01/01 12:44:33;;;;;;;110.45;46.92;;;;;;;13.92;85.04;99370.34;4861055;29;20050;-66
2022/01/01 12:47:22;;;;;;;111.75;48.50;;;;;;;13.77;85.76;99376.03;4862626;29;20073;-66
2022/01/01 12:50:08;;;;;;;110.47;51.63;;;;;;;13.71;87.01;99381.41;4857648;29;20065;-66